Time;durP1;ratioP1;P1;durP2;ratioP2;P2;SDS_P1;SDS_P2;PMS_P1;PMS_P2;Temp;Humidity;BMP_temperature;BMP_pressure;BME280_temperature;BME280_humidity;BME280_pressure;Samples;Min_cycle;Max_cycle;Signal;HPM_P1;HPM_P2
2023/04/26 00:00:07;;;;;;;16.70;1.95;;;5.50;99.90;;;4.06;83.42;100646.03;4966814;28;20424;-77
2023/04/26 00:02:34;;;;;;;14.55;2.22;;;5.50;99.90;;;4.07;83.14;100629.50;5023082;28;20025;-78
2023/04/26 00:05:00;;;;;;;12.13;1.67;;;5.50;99.90;;;4.06;83.00;100638.19;4997777;28;20045;-77
2023/04/26 00:07:31;;;;;;;19.55;2.45;;;5.50;99.90;;;4.08;82.94;100623.41;4988525;28;20111;-78
2023/04/26 00:09:57;;;;;;;22.13;3.83;;;5.50;99.90;;;4.08;82.90;100633.81;5007352;28;20092;-78
2023/04/26 00:12:22;;;;;;;19.50;2.40;;;5.50;99.90;;;4.01;82.75;100633.09;4979118;28;21029;-77
2023/04/26 00:14:48;;;;;;;18.60;2.47;;;5.40;99.90;;;3.96;82.74;100632.34;4985859;28;20037;-78
2023/04/26 00:17:14;;;;;;;14.85;1.77;;;5.40;99.90;;;3.88;82.29;100632.47;4996389;28;20026;-78
2023/04/26 00:19:40;;;;;;;22.23;2.40;;;5.30;99.90;;;3.80;82.34;100624.00;4990878;28;20069;-77
2023/04/26 00:22:07;;;;;;;12.38;1.80;;;5.20;99.90;;;3.66;82.62;100618.19;5006766;28;20566;-77
2023/04/26 00:24:36;;;;;;;16.80;2.15;;;5.10;99.90;;;3.55;83.09;100627.97;4985874;28;20034;-79
2023/04/26 00:27:07;;;;;;;22.50;2.08;;;5.00;99.90;;;3.44;83.47;100634.22;4990902;28;20485;-78
2023/04/26 00:29:36;;;;;;;22.20;2.45;;;4.90;99.90;;;3.35;83.83;100629.19;4977440;28;20030;-78
2023/04/26 00:32:05;;;;;;;18.48;2.47;;;4.80;99.90;;;3.25;84.76;100627.63;4964576;28;20505;-77
2023/04/26 00:34:35;;;;;;;22.02;2.10;;;4.80;99.90;;;3.27;85.17;100639.75;4952637;28;21360;-76
2023/04/26 00:37:04;;;;;;;17.63;2.05;;;4.80;99.90;;;3.32;85.72;100636.19;4966704;28;20044;-77
2023/04/26 00:39:32;;;;;;;19.48;3.22;;;4.80;99.90;;;3.35;85.60;100636.13;5003975;28;20633;-79
2023/04/26 00:41:58;;;;;;;20.85;2.15;;;4.80;99.90;;;3.40;85.70;100637.78;5020731;28;20022;-77
2023/04/26 00:44:24;;;;;;;15.70;2.53;;;4.90;99.90;;;3.49;85.69;100639.34;5001785;28;20030;-78
2023/04/26 00:46:52;;;;;;;20.30;2.35;;;5.00;99.90;;;3.54;85.47;100639.25;4976555;28;20122;-78
2023/04/26 00:49:27;;;;;;;15.70;2.13;;;5.00;99.90;;;3.57;84.93;100639.22;4941047;28;20101;-79
2023/04/26 00:51:54;;;;;;;19.83;2.20;;;5.00;99.90;;;3.59;85.30;100645.25;4982063;28;20057;-78
2023/04/26 00:54:20;;;;;;;15.60;2.80;;;5.00;99.90;;;3.54;85.10;100644.47;4967195;28;20145;-78
2023/04/26 00:56:54;;;;;;;13.60;2.28;;;5.00;99.90;;;3.49;84.69;100641.94;5003206;28;20030;-79
2023/04/26 00:59:22;;;;;;;27.58;2.80;;;4.90;99.90;;;3.39;84.41;100636.06;4954179;28;20449;-78
2023/04/26 01:01:48;;;;;;;14.65;1.85;;;4.80;99.90;;;3.29;84.66;100647.53;4979284;28;20586;-78
2023/04/26 01:04:14;;;;;;;17.00;2.40;;;4.70;99.90;;;3.24;84.77;100644.13;4973841;28;20040;-78
2023/04/26 01:06:45;;;;;;;16.67;2.20;;;4.70;99.90;;;3.19;85.17;100648.56;4980164;28;20521;-78
2023/04/26 01:09:14;;;;;;;12.20;2.08;;;4.60;99.90;;;3.12;85.34;100649.56;4993876;28;20029;-78
2023/04/26 01:11:41;;;;;;;10.52;1.58;;;4.60;99.90;;;3.04;85.80;100642.72;4964467;28;20519;-77
2023/04/26 01:14:07;;;;;;;21.05;2.00;;;4.50;99.90;;;2.96;86.08;100639.41;4971631;28;20099;-78
2023/04/26 01:16:36;;;;;;;18.75;2.20;;;4.40;99.90;;;2.90;86.47;100642.13;5012625;28;20037;-79
2023/04/26 01:19:11;;;;;;;18.50;2.47;;;4.40;99.90;;;2.86;86.91;100635.25;4992118;28;20045;-79
2023/04/26 01:21:38;;;;;;;15.43;2.53;;;4.30;99.90;;;2.83;87.27;100638.75;5028888;23;20061;-75
2023/04/26 01:24:04;;;;;;;20.63;2.28;;;4.40;99.90;;;2.87;87.43;100644.75;5010062;28;20041;-75
2023/04/26 01:26:31;;;;;;;13.07;2.25;;;4.40;99.90;;;2.95;87.72;100645.50;5010811;28;20106;-76
2023/04/26 01:28:57;;;;;;;17.90;2.28;;;4.40;99.90;;;3.02;88.28;100651.44;5011951;28;20513;-76
2023/04/26 01:31:23;;;;;;;17.70;1.95;;;4.50;99.90;;;3.13;88.32;100654.72;5001149;28;20033;-74
2023/04/26 01:33:49;;;;;;;13.10;2.13;;;4.60;99.90;;;3.21;88.44;100657.22;4990059;28;20133;-76
2023/04/26 01:36:15;;;;;;;22.73;2.25;;;4.70;99.90;;;3.30;88.34;100651.81;4991171;28;20616;-76
2023/04/26 01:38:41;;;;;;;25.27;2.53;;;4.80;99.90;;;3.39;88.08;100651.69;4977731;28;20037;-75
2023/04/26 01:41:06;;;;;;;19.60;2.33;;;4.80;99.90;;;3.44;88.25;100649.00;4998746;28;20026;-76
2023/04/26 01:43:33;;;;;;;18.30;2.75;;;4.90;99.90;;;3.49;87.77;100657.56;5004859;28;20109;-75
2023/04/26 01:45:58;;;;;;;17.75;2.55;;;4.90;99.90;;;3.48;87.62;100659.31;4992206;28;20504;-76
2023/04/26 01:48:24;;;;;;;21.58;2.35;;;4.90;99.90;;;3.47;87.62;100656.72;5024505;28;20053;-76
2023/04/26 01:50:50;;;;;;;18.55;2.67;;;4.90;99.90;;;3.44;87.77;100652.44;4993721;28;20561;-75
2023/04/26 01:53:16;;;;;;;19.83;2.15;;;4.90;99.90;;;3.45;87.45;100651.53;4975253;28;20419;-76
2023/04/26 01:55:42;;;;;;;21.60;2.50;;;4.90;99.90;;;3.47;87.95;100644.56;4991294;28;20073;-75
2023/04/26 01:58:08;;;;;;;23.90;2.40;;;4.90;99.90;;;3.46;87.76;100637.66;4990399;28;20042;-75
2023/04/26 02:00:34;;;;;;;20.38;2.50;;;4.90;99.90;;;3.48;87.69;100656.72;4990269;28;20105;-75
2023/04/26 02:03:00;;;;;;;22.23;2.65;;;4.90;99.90;;;3.49;87.14;100657.56;4994477;28;20045;-75
2023/04/26 02:05:25;;;;;;;20.45;2.38;;;4.90;99.90;;;3.40;87.27;100658.59;4995562;28;20045;-75
2023/04/26 02:07:51;;;;;;;24.02;2.63;;;4.90;99.90;;;3.38;87.66;100659.50;4993228;28;20047;-76
2023/04/26 02:10:17;;;;;;;23.02;3.40;;;4.80;99.90;;;3.40;87.50;100658.59;4991178;28;20164;-76
2023/04/26 02:12:43;;;;;;;16.73;2.47;;;4.80;99.90;;;3.42;87.19;100663.78;4991482;28;20050;-75
2023/04/26 02:15:10;;;;;;;19.80;2.38;;;4.80;99.90;;;3.41;87.42;100667.25;5011472;28;20125;-76
2023/04/26 02:17:36;;;;;;;20.55;2.78;;;4.80;99.90;;;3.38;87.44;100665.56;4991502;28;20046;-76
2023/04/26 02:20:03;;;;;;;21.08;2.30;;;4.80;99.90;;;3.38;87.71;100662.13;4989288;28;20507;-75
2023/04/26 02:22:30;;;;;;;15.80;2.22;;;4.80;99.90;;;3.34;87.39;100663.06;4992728;28;20115;-75
2023/04/26 02:24:55;;;;;;;16.33;2.35;;;4.70;99.90;;;3.28;87.58;100666.59;4992628;28;20057;-76
2023/04/26 02:27:21;;;;;;;22.05;2.47;;;4.70;99.90;;;3.21;87.76;100670.22;4994116;28;20135;-75
2023/04/26 02:29:48;;;;;;;23.50;2.80;;;4.70;99.90;;;3.14;87.97;100666.00;4991361;28;20549;-75
2023/04/26 02:32:16;;;;;;;14.85;2.85;;;4.60;99.90;;;3.11;87.99;100669.53;4990863;28;20121;-75
2023/04/26 02:34:43;;;;;;;21.15;2.88;;;4.60;99.90;;;3.13;88.47;100674.69;4993770;28;20457;-76
2023/04/26 02:37:09;;;;;;;19.67;3.05;;;4.60;99.90;;;3.17;88.62;100669.41;4993780;28;20062;-75
2023/04/26 02:39:35;;;;;;;16.95;2.53;;;4.60;99.90;;;3.20;88.87;100663.31;4993618;28;20620;-75
2023/04/26 02:42:01;;;;;;;20.52;2.75;;;4.60;99.90;;;3.16;89.00;100670.28;4989431;28;20057;-76
2023/04/26 02:44:30;;;;;;;22.58;3.00;;;4.70;99.90;;;3.19;89.17;100670.22;4974109;28;20034;-74
2023/04/26 02:46:56;;;;;;;25.63;2.83;;;4.70;99.90;;;3.26;89.24;100673.59;4990263;28;20044;-75
2023/04/26 02:49:22;;;;;;;23.95;3.20;;;4.70;99.90;;;3.33;89.02;100676.97;4963761;28;20038;-75
2023/04/26 02:51:48;;;;;;;16.63;2.58;;;4.70;99.90;;;3.34;89.57;100679.53;4990354;28;20064;-74
2023/04/26 02:54:15;;;;;;;15.48;2.20;;;4.80;99.90;;;3.35;89.54;100676.06;4991147;28;20109;-75
2023/04/26 02:56:41;;;;;;;20.90;2.25;;;4.80;99.90;;;3.35;89.84;100678.66;4979954;28;20027;-75
2023/04/26 02:59:06;;;;;;;15.45;1.85;;;4.80;99.90;;;3.32;90.23;100670.88;4988398;28;20053;-75
2023/04/26 03:01:32;;;;;;;13.95;2.35;;;4.80;99.90;;;3.31;90.04;100678.75;4992105;28;20120;-75
2023/04/26 03:03:58;;;;;;;13.20;1.83;;;4.80;99.90;;;3.27;90.26;100683.13;4991109;28;20121;-75
2023/04/26 03:06:24;;;;;;;12.60;1.55;;;4.70;99.90;;;3.25;90.47;100679.69;4989761;28;20104;-74
2023/04/26 03:08:50;;;;;;;20.77;2.28;;;4.70;99.90;;;3.30;90.53;100677.84;4983869;28;20046;-75
2023/04/26 03:11:15;;;;;;;16.88;2.42;;;4.70;99.90;;;3.31;90.35;100684.78;4992820;28;20026;-75
2023/04/26 03:13:41;;;;;;;16.60;2.45;;;4.70;99.90;;;3.29;90.65;100684.81;4965363;28;20042;-75
2023/04/26 03:16:07;;;;;;;16.60;2.90;;;4.80;99.90;;;3.32;90.76;100678.69;4992147;28;21248;-75
2023/04/26 03:18:33;;;;;;;30.92;2.70;;;4.70;99.90;;;3.28;90.40;100672.69;4996136;28;20177;-75
2023/04/26 03:20:58;;;;;;;23.33;2.85;;;4.70;99.90;;;3.22;90.45;100674.56;4991037;28;20133;-75
2023/04/26 03:23:24;;;;;;;21.33;2.60;;;4.70;99.90;;;3.20;90.39;100674.56;4988914;28;20611;-75
2023/04/26 03:25:50;;;;;;;21.60;3.08;;;4.70;99.90;;;3.20;90.36;100678.91;4973570;28;20049;-75
2023/04/26 03:28:16;;;;;;;24.25;2.78;;;4.60;99.90;;;3.20;90.47;100674.56;4990906;28;20506;-75
2023/04/26 03:30:42;;;;;;;17.33;2.38;;;4.70;99.90;;;3.18;90.72;100675.47;4990218;28;20064;-74
2023/04/26 03:33:08;;;;;;;20.75;2.58;;;4.60;99.90;;;3.17;90.26;100677.19;4987527;28;20684;-75
2023/04/26 03:35:34;;;;;;;20.70;2.92;;;4.60;99.90;;;3.17;90.93;100676.34;4992986;28;20034;-75
2023/04/26 03:38:00;;;;;;;23.75;3.03;;;4.60;99.90;;;3.20;90.69;100686.72;4998978;28;20109;-75
2023/04/26 03:40:25;;;;;;;25.00;2.63;;;4.60;99.90;;;3.20;91.25;100686.72;4987024;28;23145;-75
2023/04/26 03:42:51;;;;;;;16.30;1.75;;;4.60;99.90;;;3.17;91.27;100679.81;4989701;28;20034;-75
2023/04/26 03:45:17;;;;;;;25.63;3.10;;;4.60;99.90;;;3.22;91.41;100685.81;4989072;28;20036;-75
2023/04/26 03:47:43;;;;;;;16.48;2.20;;;4.70;99.90;;;3.21;91.71;100684.06;4979913;28;20040;-75
2023/04/26 03:50:09;;;;;;;24.85;2.90;;;4.70;99.90;;;3.23;91.65;100695.31;4990266;28;20414;-75
2023/04/26 03:52:35;;;;;;;21.05;2.63;;;4.70;99.90;;;3.23;91.91;100697.91;4988190;28;20033;-74
2023/04/26 03:55:01;;;;;;;11.60;1.80;;;4.60;99.90;;;3.19;91.93;100701.47;4989266;28;20041;-74
2023/04/26 03:57:27;;;;;;;40.42;2.50;;;4.60;99.90;;;3.07;92.53;100706.88;4989676;28;20068;-75
2023/04/26 03:59:53;;;;;;;16.80;2.50;;;4.60;99.90;;;3.08;93.42;100706.84;4989741;28;20049;-75
2023/04/26 04:02:18;;;;;;;14.93;1.58;;;4.50;99.90;;;2.96;94.21;100714.84;4985643;28;20732;-75
2023/04/26 04:04:44;;;;;;;14.55;2.20;;;4.50;99.90;;;3.04;95.02;100707.75;4990970;28;20044;-74
2023/04/26 04:07:10;;;;;;;15.35;2.65;;;4.60;99.90;;;3.14;95.08;100713.69;4971449;28;20129;-75
2023/04/26 04:09:36;;;;;;;18.90;2.70;;;4.60;99.90;;;3.25;94.98;100713.53;4990415;28;20108;-75
2023/04/26 04:12:02;;;;;;;24.55;3.20;;;4.70;99.90;;;3.38;94.30;100714.19;4994230;28;20061;-74
2023/04/26 04:14:28;;;;;;;22.58;2.80;;;4.70;99.90;;;3.38;93.32;100715.03;4973327;28;20033;-75
2023/04/26 04:16:54;;;;;;;25.75;3.13;;;4.80;99.90;;;3.49;92.20;100720.03;4994152;28;20042;-75
2023/04/26 04:19:20;;;;;;;20.15;2.60;;;4.80;99.90;;;3.55;91.57;100716.50;4992899;28;20122;-75
2023/04/26 04:21:45;;;;;;;22.27;2.40;;;4.80;99.90;;;3.47;90.59;100712.25;4987298;28;20104;-77
2023/04/26 04:24:11;;;;;;;22.60;2.30;;;4.90;99.90;;;3.61;90.01;100705.97;4990469;28;20125;-76
2023/04/26 04:26:37;;;;;;;26.05;2.53;;;4.90;99.90;;;3.75;89.44;100722.19;4974685;28;20034;-76
2023/04/26 04:29:07;;;;;;;17.83;2.65;;;5.10;99.90;;;3.95;88.70;100723.53;4988907;28;20106;-77
2023/04/26 04:31:35;;;;;;;17.80;2.83;;;5.20;99.90;;;4.20;87.71;100721.31;4988646;28;20057;-76
2023/04/26 04:34:01;;;;;;;26.30;2.83;;;5.40;99.90;;;4.50;86.52;100732.84;4989115;28;20180;-76
2023/04/26 04:36:26;;;;;;;20.40;2.60;;;5.50;99.90;;;4.67;85.40;100738.56;4991090;28;20704;-76
2023/04/26 04:38:52;;;;;;;25.52;2.90;;;5.80;99.90;;;5.20;84.14;100735.59;4988539;28;20034;-76
2023/04/26 04:41:22;;;;;;;20.20;2.85;;;6.50;99.90;;;6.61;81.38;100753.63;4988042;28;20050;-74
2023/04/26 04:43:48;;;;;;;17.92;2.97;;;7.00;99.90;;;6.76;78.89;100754.06;4987238;28;20550;-75
2023/04/26 04:46:14;;;;;;;24.38;2.72;;;7.10;99.90;;;6.44;77.78;100741.06;4987398;28;20117;-76
2023/04/26 04:48:42;;;;;;;25.10;3.22;;;7.10;99.90;;;6.00;78.10;100749.25;4991368;28;20080;-76
2023/04/26 04:51:08;;;;;;;18.70;3.00;;;6.90;99.90;;;5.59;79.46;100753.78;4990909;28;20053;-78
2023/04/26 04:53:33;;;;;;;19.30;2.95;;;6.80;99.90;;;5.61;80.05;100756.34;4988201;28;20038;-76
2023/04/26 04:55:59;;;;;;;16.98;2.33;;;7.70;99.90;;;9.28;75.69;100775.78;4987797;28;20073;-76
2023/04/26 04:58:25;;;;;;;11.00;2.50;;;9.10;99.90;;;12.02;67.72;100789.66;4993625;28;20049;-76
2023/04/26 05:00:53;;;;;;;15.57;2.53;;;9.20;99.90;;;13.58;60.36;100797.91;4991009;28;20038;-75
2023/04/26 05:03:19;;;;;;;25.00;2.92;;;11.10;99.90;;;11.46;61.02;100757.25;4988740;28;20173;-75
2023/04/26 05:05:44;;;;;;;19.15;2.88;;;10.80;99.90;;;10.18;63.85;100759.75;4989265;28;20121;-75
2023/04/26 05:08:10;;;;;;;19.60;2.80;;;10.30;99.90;;;9.50;65.88;100767.03;4966408;28;20396;-75
2023/04/26 05:10:37;;;;;;;22.15;2.63;;;10.70;99.90;;;13.07;61.20;100814.84;4994065;28;20117;-75
2023/04/26 05:13:02;;;;;;;13.93;2.40;;;11.50;99.90;;;13.88;57.24;100811.13;4993868;28;20042;-75
2023/04/26 05:15:28;;;;;;;13.80;2.83;;;12.00;99.90;;;14.66;56.62;100818.81;4991029;28;20084;-76
2023/04/26 05:17:54;;;;;;;19.30;2.75;;;12.60;99.90;;;14.29;53.69;100803.34;4992488;28;20469;-76
2023/04/26 05:20:21;;;;;;;18.23;2.80;;;12.30;99.90;;;11.57;57.36;100773.41;4994277;28;20026;-76
2023/04/26 05:22:47;;;;;;;23.50;2.60;;;11.50;99.90;;;10.15;61.45;100766.00;4991772;28;20157;-76
2023/04/26 05:25:13;;;;;;;21.35;2.53;;;10.70;99.90;;;9.02;64.54;100763.69;4989907;28;20507;-75
2023/04/26 05:27:38;;;;;;;25.88;2.83;;;9.90;99.90;;;8.16;67.00;100759.91;4990741;28;20061;-75
2023/04/26 05:30:07;;;;;;;18.45;2.42;;;9.20;99.90;;;7.47;68.33;100770.13;4989501;28;20065;-74
2023/04/26 05:32:33;;;;;;;17.98;2.70;;;9.10;99.90;;;11.27;65.80;100807.41;4992494;28;20066;-75
2023/04/26 05:35:00;;;;;;;26.92;3.08;;;10.30;99.90;;;15.08;56.05;100832.97;4988289;28;20060;-75
2023/04/26 05:37:25;;;;;;;13.23;2.20;;;12.00;99.90;;;17.94;49.34;100859.25;4985761;28;20064;-75
2023/04/26 05:39:51;;;;;;;18.02;2.40;;;13.90;99.90;;;19.97;45.22;100879.72;4990490;28;20064;-75
2023/04/26 05:42:17;;;;;;;15.70;2.72;;;15.40;99.90;;;19.19;43.79;100857.59;4989298;28;20046;-76
2023/04/26 05:44:43;;;;;;;20.25;3.15;;;15.40;99.90;;;15.60;49.45;100826.94;4991675;28;20034;-75
2023/04/26 05:47:09;;;;;;;16.45;2.35;;;14.70;99.90;;;13.49;53.37;100817.81;4993012;28;20153;-75
2023/04/26 05:49:35;;;;;;;24.13;3.28;;;13.70;99.90;;;12.22;56.75;100815.00;4993424;28;20034;-75
2023/04/26 05:52:02;;;;;;;16.33;2.67;;;12.70;99.90;;;11.26;58.73;100806.56;4991507;28;20122;-75
2023/04/26 05:54:28;;;;;;;15.23;2.53;;;11.90;99.90;;;10.33;60.77;100798.56;4990662;28;20026;-75
2023/04/26 05:56:54;;;;;;;18.40;2.72;;;11.40;99.90;;;12.49;60.77;100832.03;4994518;28;20070;-74
2023/04/26 05:59:20;;;;;;;14.50;2.72;;;12.00;99.90;;;16.05;51.60;100871.81;4992024;28;20506;-75
2023/04/26 06:01:45;;;;;;;17.23;2.42;;;13.30;99.90;;;18.51;46.51;100897.56;4991056;28;20065;-75
2023/04/26 06:04:11;;;;;;;14.45;2.40;;;14.90;99.90;;;20.29;42.91;100922.44;4998652;28;20107;-76
2023/04/26 06:06:37;;;;;;;20.25;2.80;;;16.40;99.90;;;21.54;40.70;100933.09;4990162;28;20121;-75
2023/04/26 06:09:03;;;;;;;15.90;2.53;;;17.70;99.90;;;22.69;39.04;100950.19;4995127;28;20124;-75
2023/04/26 06:11:29;;;;;;;17.90;2.65;;;18.70;99.40;;;21.88;38.35;100928.22;4992323;28;20072;-75
2023/04/26 06:13:55;;;;;;;17.10;2.75;;;18.40;97.10;;;17.86;43.43;100888.31;4991247;28;20454;-75
2023/04/26 06:16:22;;;;;;;16.42;2.53;;;17.40;97.90;;;15.92;46.88;100866.47;4992180;28;20034;-75
2023/04/26 06:18:48;;;;;;;15.75;2.53;;;16.00;99.30;;;13.87;50.59;100849.16;4991458;28;20030;-75
2023/04/26 06:21:13;;;;;;;15.55;2.42;;;14.60;99.90;;;12.30;53.85;100841.88;4993415;28;20034;-75
2023/04/26 06:23:40;;;;;;;20.00;2.67;;;13.50;99.90;;;11.37;56.32;100836.81;4993288;28;20054;-75
2023/04/26 06:26:05;;;;;;;19.98;3.78;;;12.40;99.90;;;10.38;58.53;100829.94;4999835;28;20034;-75
2023/04/26 06:28:31;;;;;;;16.50;2.53;;;11.60;99.90;;;9.71;60.45;100831.00;4986655;28;20056;-74
2023/04/26 06:30:57;;;;;;;12.32;2.25;;;11.50;99.90;;;12.46;57.53;100871.84;4972977;28;20128;-74
2023/04/26 06:33:23;;;;;;;14.30;2.35;;;12.20;99.90;;;14.27;53.88;100897.09;4991418;28;20041;-74
2023/04/26 06:35:49;;;;;;;9.85;2.10;;;13.20;99.90;;;15.77;50.56;100903.69;4992641;28;20053;-75
2023/04/26 06:38:14;;;;;;;15.55;2.58;;;14.70;99.90;;;18.61;46.33;100935.88;5007370;28;20058;-75
2023/04/26 06:40:40;;;;;;;19.25;2.90;;;16.50;99.90;;;20.33;43.63;100960.47;4991447;28;20117;-75
2023/04/26 06:43:06;;;;;;;9.57;1.73;;;18.10;99.40;;;21.35;40.33;100971.34;5006144;28;20061;-74
2023/04/26 06:45:32;;;;;;;12.48;2.17;;;19.40;97.80;;;22.41;39.43;100994.84;4989936;28;20042;-75
2023/04/26 06:47:59;;;;;;;13.20;2.28;;;20.20;95.00;;;20.90;39.23;100972.56;4989501;28;20034;-75
2023/04/26 06:50:25;;;;;;;16.75;2.67;;;19.90;95.20;;;18.43;43.26;100939.97;4989509;28;20040;-74
2023/04/26 06:52:51;;;;;;;15.77;2.40;;;18.70;95.00;;;16.65;45.67;100931.50;4990386;28;20038;-75
2023/04/26 06:55:17;;;;;;;16.20;2.50;;;17.30;96.00;;;15.45;48.05;100918.16;4990032;28;20107;-75
2023/04/26 06:57:43;;;;;;;14.30;2.38;;;16.60;97.30;;;15.69;47.19;100921.88;4991433;28;20026;-75
2023/04/26 07:00:10;;;;;;;18.20;2.60;;;16.60;98.30;;;18.09;45.26;100953.16;4987334;28;20033;-75
2023/04/26 07:02:36;;;;;;;18.30;3.10;;;17.10;98.70;;;18.18;44.98;100957.78;4989513;28;20034;-74
2023/04/26 07:05:01;;;;;;;18.58;2.50;;;18.00;98.00;;;19.96;42.79;100990.25;4990943;28;20038;-74
2023/04/26 07:07:27;;;;;;;18.15;2.53;;;19.10;95.70;;;20.93;40.25;101000.88;4992923;28;20034;-75
2023/04/26 07:09:53;;;;;;;18.70;2.92;;;20.20;96.70;;;22.11;39.39;101015.41;4991997;28;20041;-75
2023/04/26 07:12:19;;;;;;;15.95;2.65;;;21.10;93.40;;;22.42;38.20;101019.84;4972021;28;20046;-75
2023/04/26 07:14:45;;;;;;;14.02;2.50;;;21.80;92.40;;;23.00;37.59;101043.09;4991875;28;20030;-75
2023/04/26 07:17:11;;;;;;;12.65;2.60;;;22.70;92.20;;;23.13;37.07;101039.16;4991641;28;20036;-75
2023/04/26 07:19:37;;;;;;;14.50;2.38;;;22.70;90.10;;;21.83;37.82;101025.09;4993439;28;20038;-75
2023/04/26 07:22:03;;;;;;;14.02;2.35;;;21.80;90.40;;;19.30;40.68;101007.06;4989964;28;20066;-74
2023/04/26 07:24:29;;;;;;;13.90;2.55;;;20.00;90.90;;;17.65;43.21;100981.22;4987748;28;20180;-75
2023/04/26 07:26:55;;;;;;;8.15;1.55;;;18.90;93.00;;;17.76;43.42;100973.31;4991629;28;20498;-75
2023/04/26 07:29:21;;;;;;;13.10;2.28;;;18.50;94.40;;;18.61;43.20;100991.03;4991636;28;20105;-74
2023/04/26 07:31:48;;;;;;;14.10;2.90;;;19.00;93.40;;;19.09;42.17;101006.06;4989121;28;20022;-75
2023/04/26 07:34:14;;;;;;;13.50;2.03;;;19.20;93.80;;;19.19;42.46;101009.72;4972004;28;20058;-75
2023/04/26 07:36:39;;;;;;;12.82;2.47;;;19.60;92.70;;;19.68;40.83;101009.34;4988651;28;20121;-75
2023/04/26 07:39:07;;;;;;;13.82;1.90;;;20.20;92.70;;;20.40;40.26;101039.19;4990419;28;20061;-75
2023/04/26 07:41:33;;;;;;;11.93;2.22;;;20.50;90.80;;;20.04;39.71;101031.44;4993578;28;20049;-74
2023/04/26 07:44:00;;;;;;;14.88;2.38;;;20.40;92.00;;;19.07;41.52;101024.91;4990302;28;20080;-75
2023/04/26 07:46:25;;;;;;;10.60;2.53;;;19.90;92.10;;;18.27;42.39;101011.38;4972505;28;20117;-75
2023/04/26 07:48:51;;;;;;;;;;;19.80;92.70;;;14.40;45.60;100974.03;4973054;28;20134;-75
2023/04/26 07:51:17;;;;;;;12.77;2.20;;;16.10;95.10;;;13.23;51.11;100947.03;5021266;28;19914;-75
2023/04/26 07:53:43;;;;;;;15.85;2.45;;;15.50;96.60;;;14.74;49.31;100980.88;4990487;28;20038;-74
2023/04/26 07:56:09;;;;;;;20.15;2.92;;;15.60;97.90;;;15.09;49.05;100991.13;5004143;28;20585;-75
2023/04/26 07:58:37;;;;;;;14.55;2.05;;;15.80;97.10;;;14.83;49.36;100985.63;4974495;28;20041;-75
2023/04/26 08:01:03;;;;;;;15.15;2.25;;;15.50;97.60;;;14.49;49.69;100977.03;4972084;28;20113;-75
2023/04/26 08:03:30;;;;;;;14.07;2.20;;;15.80;97.30;;;16.15;47.14;100995.91;4990108;28;20050;-75
2023/04/26 08:05:57;;;;;;;13.18;2.60;;;16.50;96.40;;;16.83;45.93;101010.03;4973328;28;20411;-75
2023/04/26 08:08:25;;;;;;;3.28;1.25;;;16.60;97.90;;;17.22;44.12;101016.22;4989176;28;20473;-74
2023/04/26 08:10:52;;;;;;;14.50;2.63;;;18.20;96.40;;;18.25;44.42;101019.50;4988735;28;20186;-75
2023/04/26 08:13:18;;;;;;;7.80;1.60;;;17.40;94.00;;;14.24;46.79;101011.16;4990690;28;20044;-74
2023/04/26 08:15:44;;;;;;;8.50;1.13;;;14.30;96.00;;;9.85;55.03;100975.97;4994674;28;20446;-77
2023/04/26 08:18:10;;;;;;;7.65;1.30;;;12.00;99.00;;;7.81;60.50;100955.97;4990786;28;20041;-76
2023/04/26 08:20:47;;;;;;;10.88;1.77;;;10.30;99.90;;;6.90;64.63;100956.94;4974078;28;20041;-76
2023/04/26 08:23:13;;;;;;;17.88;1.77;;;9.30;99.90;;;6.73;67.41;100963.47;4987221;28;20045;-77
2023/04/26 08:25:39;;;;;;;12.13;2.13;;;8.90;99.90;;;6.88;68.41;100969.22;4989640;28;20601;-75
2023/04/26 08:28:06;;;;;;;12.52;2.05;;;8.70;99.90;;;7.01;69.30;100970.59;4990699;28;20118;-76
2023/04/26 08:30:32;;;;;;;13.57;1.80;;;8.60;99.90;;;7.21;70.44;100961.31;4991286;28;20108;-75
2023/04/26 08:32:58;;;;;;;11.20;1.85;;;8.70;99.90;;;7.89;70.70;100968.84;4996970;28;20418;-75
2023/04/26 08:35:24;;;;;;;9.25;2.00;;;9.20;99.90;;;8.90;69.90;100971.63;4957169;28;20058;-76
2023/04/26 08:37:50;;;;;;;9.25;1.92;;;9.70;99.90;;;9.20;69.22;100978.41;4990109;28;20030;-75
2023/04/26 08:40:23;;;;;;;13.27;2.40;;;10.00;99.90;;;9.63;67.90;100975.91;4990169;28;20065;-76
2023/04/26 08:42:52;;;;;;;10.20;2.38;;;10.40;99.90;;;10.03;67.77;100975.22;4991581;28;20088;-76
2023/04/26 08:45:22;;;;;;;14.18;2.78;;;10.70;99.90;;;10.13;66.58;100980.09;4993503;28;20022;-75
2023/04/26 08:47:55;;;;;;;13.88;2.50;;;10.90;99.90;;;10.29;66.33;100969.81;4991866;28;20632;-76
2023/04/26 08:50:22;;;;;;;10.48;2.60;;;11.10;99.90;;;10.69;65.65;100974.28;4993733;28;20034;-75
2023/04/26 08:52:50;;;;;;;11.63;2.05;;;11.40;99.90;;;11.26;64.43;100967.34;4992916;28;20080;-75
2023/04/26 08:55:21;;;;;;;16.17;2.08;;;11.90;99.90;;;11.89;64.05;100961.78;4993516;28;20030;-76
2023/04/26 08:57:48;;;;;;;8.93;1.70;;;12.20;99.90;;;11.59;63.58;100958.78;4993707;28;20034;-76
2023/04/26 09:00:16;;;;;;;19.38;2.30;;;12.20;99.90;;;11.45;63.56;100964.72;4976096;28;20084;-76
2023/04/26 09:02:48;;;;;;;15.02;1.83;;;12.20;99.90;;;11.18;62.01;100966.81;4976153;28;20031;-75
2023/04/26 09:05:14;;;;;;;15.35;2.25;;;12.20;99.90;;;11.02;60.75;100971.09;4992652;28;20290;-75
2023/04/26 09:07:52;;;;;;;12.85;2.03;;;12.20;99.90;;;11.55;61.42;100962.50;4992883;28;20069;-75
2023/04/26 09:10:21;;;;;;;10.98;1.95;;;12.40;99.90;;;11.88;60.01;100961.88;4978390;28;20042;-75
2023/04/26 09:12:52;;;;;;;10.70;2.50;;;12.70;99.90;;;11.97;57.75;100964.06;4993118;28;20038;-75
2023/04/26 09:15:21;;;;;;;14.23;1.80;;;12.50;99.90;;;11.26;57.62;100962.06;4996489;28;20030;-75
2023/04/26 09:17:48;;;;;;;11.10;1.83;;;12.00;99.90;;;10.37;57.56;100958.06;4994130;28;20065;-76
2023/04/26 09:20:30;;;;;;;8.20;1.00;;;11.30;99.90;;;9.10;58.71;100942.03;4977652;28;20053;-74
2023/04/26 09:23:07;;;;;;;8.65;1.95;;;10.70;99.90;;;8.86;59.48;100949.03;4994074;28;20112;-75
2023/04/26 09:25:35;;;;;;;9.45;1.10;;;10.50;99.90;;;9.01;60.13;100948.47;4995863;28;20049;-75
2023/04/26 09:28:21;;;;;;;8.48;1.27;;;10.50;99.90;;;9.44;61.07;100946.88;4991669;28;20045;-75
2023/04/26 09:30:47;;;;;;;;;;;10.50;99.90;;;9.77;60.60;100964.88;5007878;28;20053;-76
2023/04/26 09:33:14;;;;;;;8.30;1.30;;;10.80;99.90;;;9.83;59.96;100954.13;5026378;28;19952;-75
2023/04/26 09:35:43;;;;;;;3.75;1.17;;;11.00;99.90;;;9.92;60.10;100964.28;4995785;28;20026;-76
2023/04/26 09:38:15;;;;;;;5.82;1.48;;;11.00;99.90;;;9.87;59.35;100958.34;4985135;28;20073;-76
2023/04/26 09:40:47;;;;;;;7.47;1.58;;;11.10;99.90;;;10.23;59.82;100978.81;4981654;28;20078;-75
2023/04/26 09:43:21;;;;;;;8.95;1.70;;;11.30;99.90;;;10.41;59.32;100970.19;4977297;28;20052;-76
2023/04/26 09:46:00;;;;;;;12.05;1.60;;;11.50;99.90;;;10.61;59.14;100963.22;4992099;28;20633;-76
2023/04/26 09:48:30;;;;;;;4.38;1.23;;;11.60;99.90;;;10.61;58.09;100969.34;4997969;28;20038;-76
2023/04/26 09:51:13;;;;;;;6.53;1.30;;;11.70;99.90;;;10.73;58.19;100978.47;4995393;28;20093;-77
2023/04/26 09:53:48;;;;;;;11.32;1.48;;;11.80;99.90;;;11.03;57.72;100991.22;4992433;28;20113;-76
2023/04/26 09:56:19;;;;;;;11.35;1.25;;;12.10;99.90;;;11.58;57.27;100980.81;4994152;28;20050;-75
2023/04/26 09:59:07;;;;;;;2.60;0.90;;;12.20;99.90;;;11.33;56.17;100990.78;4996002;28;21109;-76
2023/04/26 10:01:33;;;;;;;9.18;1.00;;;12.40;99.90;;;11.57;55.48;100987.00;4975975;28;20121;-76
2023/04/26 10:04:01;;;;;;;7.38;1.25;;;12.50;99.90;;;11.60;54.07;100989.53;4993904;28;20159;-76
2023/04/26 10:06:34;;;;;;;4.05;0.93;;;12.50;99.90;;;11.11;53.66;100980.38;4993534;28;20813;-76
2023/04/26 10:09:07;;;;;;;12.68;2.10;;;12.10;99.90;;;10.83;54.53;100984.22;4996137;28;20723;-76
2023/04/26 10:11:38;;;;;;;7.85;0.70;;;12.10;99.90;;;10.85;55.96;100977.09;4994342;28;20058;-75
2023/04/26 10:14:07;;;;;;;10.45;1.58;;;12.00;99.90;;;10.84;56.06;100997.31;4997542;28;20453;-76